createdAt,value
2019-04-27T00:00:48.262Z,13.76
2019-04-27T00:03:23.343Z,13.60
2019-04-27T00:05:54.364Z,13.61
2019-04-27T00:08:28.502Z,13.66
2019-04-27T00:11:09.627Z,13.68
2019-04-27T00:13:40.591Z,13.72
2019-04-27T00:16:09.714Z,13.60
2019-04-27T00:18:37.680Z,13.76
2019-04-27T00:21:05.116Z,13.71
2019-04-27T00:23:34.007Z,13.42
2019-04-27T00:26:00.044Z,13.58
2019-04-27T00:28:27.449Z,13.10
2019-04-27T00:30:54.916Z,13.51
2019-04-27T00:33:23.753Z,13.52
2019-04-27T00:35:54.324Z,13.43
2019-04-27T00:38:24.687Z,13.38
2019-04-27T00:40:55.126Z,13.46
2019-04-27T00:43:22.948Z,13.49
2019-04-27T00:45:50.035Z,13.46
2019-04-27T00:48:17.485Z,13.46
2019-04-27T00:50:44.892Z,13.50
2019-04-27T00:53:13.368Z,12.76
2019-04-27T00:55:39.737Z,13.22
2019-04-27T00:58:10.094Z,13.29
2019-04-27T01:00:58.216Z,13.31
2019-04-27T01:03:42.969Z,13.29
2019-04-27T01:06:08.778Z,12.91
2019-04-27T01:08:36.241Z,12.68
2019-04-27T01:11:04.623Z,12.79
2019-04-27T01:13:34.759Z,12.62
2019-04-27T01:15:59.508Z,12.85
2019-04-27T01:18:28.445Z,12.81
2019-04-27T01:20:54.421Z,12.82
2019-04-27T01:23:21.855Z,12.94
2019-04-27T01:25:55.051Z,12.83
2019-04-27T01:28:23.002Z,12.64
2019-04-27T01:30:50.444Z,12.73
2019-04-27T01:33:19.687Z,12.84
2019-04-27T01:35:49.142Z,12.83
2019-04-27T01:38:15.097Z,12.71
2019-04-27T01:40:42.552Z,12.73
2019-04-27T01:43:10.005Z,12.73
2019-04-27T01:45:38.991Z,12.68
2019-04-27T01:48:05.443Z,12.55
2019-04-27T01:50:32.912Z,12.59
2019-04-27T01:53:00.333Z,12.60
2019-04-27T01:55:27.748Z,12.53
2019-04-27T01:57:55.174Z,11.97
2019-04-27T02:00:26.427Z,12.07
2019-04-27T02:02:53.838Z,12.21
2019-04-27T02:05:29.032Z,12.25
2019-04-27T02:07:55.322Z,12.19
2019-04-27T02:10:22.775Z,12.24
2019-04-27T02:12:50.202Z,12.32
2019-04-27T02:15:19.108Z,12.05
2019-04-27T02:17:45.054Z,12.04
2019-04-27T02:20:12.620Z,12.02
2019-04-27T02:22:40.075Z,12.10
2019-04-27T02:25:09.044Z,12.18
2019-04-27T02:27:35.046Z,12.25
2019-04-27T02:30:20.456Z,12.04
2019-04-27T02:33:05.490Z,12.17
2019-04-27T02:35:32.943Z,12.11
2019-04-27T02:38:00.580Z,11.97
2019-04-27T02:40:42.609Z,12.05
2019-04-27T02:43:07.242Z,12.09
2019-04-27T02:45:34.713Z,12.00
2019-04-27T02:48:02.221Z,11.82
2019-04-27T02:50:31.197Z,12.18
2019-04-27T02:53:00.287Z,11.60
2019-04-27T02:55:26.149Z,11.60
2019-04-27T02:57:53.627Z,11.86
2019-04-27T03:00:21.090Z,11.87
2019-04-27T03:02:50.872Z,11.97
2019-04-27T03:05:16.622Z,11.75
2019-04-27T03:07:44.029Z,11.93
2019-04-27T03:10:11.451Z,12.08
2019-04-27T03:12:42.002Z,12.01
2019-04-27T03:15:12.648Z,11.78
2019-04-27T03:17:45.665Z,11.76
2019-04-27T03:20:13.919Z,11.93
2019-04-27T03:22:43.787Z,11.84
2019-04-27T03:25:26.144Z,11.97
2019-04-27T03:27:53.594Z,12.11
2019-04-27T03:30:22.993Z,11.70
2019-04-27T03:32:54.858Z,11.97
2019-04-27T03:35:15.988Z,11.96
2019-04-27T03:37:43.419Z,12.14
2019-04-27T03:40:10.834Z,11.58
2019-04-27T03:42:40.264Z,11.72
2019-04-27T03:45:05.823Z,12.03
2019-04-27T03:47:33.284Z,12.01
2019-04-27T03:50:00.768Z,12.14
2019-04-27T03:52:31.078Z,11.96
2019-04-27T03:55:00.442Z,11.67
2019-04-27T03:57:35.552Z,11.83
2019-04-27T04:00:03.007Z,11.62
2019-04-27T04:02:30.597Z,11.81
2019-04-27T04:04:59.573Z,11.79
2019-04-27T04:07:25.394Z,11.98
2019-04-27T04:09:53.896Z,11.98
2019-04-27T04:12:22.132Z,11.82
2019-04-27T04:14:49.576Z,11.84
2019-04-27T04:17:17.044Z,12.04
2019-04-27T04:19:54.362Z,11.97
2019-04-27T04:22:11.972Z,11.98
2019-04-27T04:24:40.351Z,12.01
2019-04-27T04:27:09.942Z,12.03
2019-04-27T04:29:36.405Z,12.02
2019-04-27T04:32:03.903Z,12.02
2019-04-27T04:34:31.366Z,12.02
2019-04-27T04:37:00.448Z,12.16
2019-04-27T04:39:26.336Z,12.24
2019-04-27T04:41:59.773Z,12.15
2019-04-27T04:44:30.605Z,12.05
2019-04-27T04:47:01.532Z,12.07
2019-04-27T04:49:29.615Z,12.17
2019-04-27T04:51:56.373Z,12.20
2019-04-27T04:54:24.694Z,12.20
2019-04-27T04:56:51.266Z,12.28
2019-04-27T04:59:20.179Z,12.28
2019-04-27T05:01:46.272Z,12.10
2019-04-27T05:04:13.738Z,12.03
2019-04-27T05:06:41.176Z,12.11
2019-04-27T05:09:09.727Z,12.20
2019-04-27T05:11:37.242Z,11.70
2019-04-27T05:14:04.683Z,12.01
2019-04-27T05:16:32.937Z,12.07
2019-04-27T05:18:59.657Z,12.00
2019-04-27T05:21:27.128Z,11.91
2019-04-27T05:23:54.546Z,11.80
2019-04-27T05:26:21.981Z,11.74
2019-04-27T05:28:49.417Z,12.00
2019-04-27T05:31:19.489Z,12.05
2019-04-27T05:33:46.511Z,11.84
2019-04-27T05:36:13.942Z,11.98
2019-04-27T05:38:46.007Z,11.78
2019-04-27T05:41:08.840Z,11.74
2019-04-27T05:43:36.611Z,12.10
2019-04-27T05:46:12.901Z,12.01
2019-04-27T05:48:40.481Z,11.93
2019-04-27T05:51:09.220Z,11.91
2019-04-27T05:53:35.395Z,11.75
2019-04-27T05:56:02.845Z,12.11
2019-04-27T05:58:30.282Z,12.17
2019-04-27T06:00:59.469Z,11.79
2019-04-27T06:03:25.225Z,12.13
2019-04-27T06:05:52.716Z,11.52
2019-04-27T06:08:21.140Z,11.56
2019-04-27T06:10:48.906Z,11.60
2019-04-27T06:13:15.135Z,11.85
2019-04-27T06:15:42.610Z,11.97
2019-04-27T06:18:11.011Z,11.85
2019-04-27T06:20:50.475Z,12.03
2019-04-27T06:23:05.996Z,11.63
2019-04-27T06:25:33.467Z,11.95
2019-04-27T06:28:00.979Z,11.76
2019-04-27T06:30:29.226Z,11.81
2019-04-27T06:32:55.898Z,12.13
2019-04-27T06:35:23.342Z,12.24
2019-04-27T06:37:50.835Z,12.04
2019-04-27T06:40:18.720Z,12.09
2019-04-27T06:42:45.706Z,12.03
2019-04-27T06:45:13.127Z,12.34
2019-04-27T06:47:41.558Z,12.17
2019-04-27T06:50:08.965Z,11.64
2019-04-27T06:52:36.392Z,11.83
2019-04-27T06:55:06.223Z,11.85
2019-04-27T06:57:31.306Z,11.92
2019-04-27T06:59:59.143Z,12.01
2019-04-27T07:02:26.274Z,11.70
2019-04-27T07:04:53.738Z,11.98
2019-04-27T07:07:21.177Z,11.90
2019-04-27T07:09:49.345Z,11.93
2019-04-27T07:12:16.071Z,12.07
2019-04-27T07:14:52.210Z,12.18
2019-04-27T07:17:12.045Z,11.62
2019-04-27T07:19:39.770Z,11.60
2019-04-27T07:22:06.988Z,11.68
2019-04-27T07:24:34.517Z,11.65
2019-04-27T07:27:02.022Z,11.57
2019-04-27T07:29:29.472Z,11.99
2019-04-27T07:31:56.895Z,11.58
2019-04-27T07:34:24.428Z,11.94
2019-04-27T07:36:52.003Z,11.82
2019-04-27T07:39:19.534Z,11.61
2019-04-27T07:41:48.520Z,11.93
2019-04-27T07:44:16.339Z,12.00
2019-04-27T07:46:43.794Z,12.24
2019-04-27T07:49:11.243Z,12.17
2019-04-27T07:51:39.403Z,11.86
2019-04-27T07:54:06.846Z,12.37
2019-04-27T07:56:34.362Z,12.47
2019-04-27T07:59:01.817Z,12.56
2019-04-27T08:01:29.782Z,12.53
2019-04-27T08:03:58.902Z,12.28
2019-04-27T08:06:24.795Z,12.51
2019-04-27T08:11:29.258Z,11.97
2019-04-27T08:13:56.227Z,12.15
2019-04-27T08:16:24.886Z,12.18
2019-04-27T08:18:52.471Z,12.16
2019-04-27T08:21:20.103Z,11.86
2019-04-27T08:23:48.990Z,12.41
2019-04-27T08:26:15.046Z,12.31
2019-04-27T08:28:55.325Z,11.88
2019-04-27T08:31:25.742Z,12.13
2019-04-27T08:33:53.162Z,11.79
2019-04-27T08:36:20.798Z,12.12
2019-04-27T08:38:49.196Z,12.04
2019-04-27T08:41:16.912Z,12.38
2019-04-27T08:43:44.536Z,12.29
2019-04-27T08:46:12.028Z,12.40
2019-04-27T08:48:39.537Z,11.82
2019-04-27T08:51:07.012Z,11.73
2019-04-27T08:53:34.478Z,11.82
2019-04-27T08:56:02.064Z,11.71
2019-04-27T08:58:29.540Z,12.02
2019-04-27T09:00:58.897Z,11.68
2019-04-27T09:03:24.722Z,11.93
2019-04-27T09:05:52.207Z,11.69
2019-04-27T09:08:21.449Z,12.00
2019-04-27T09:10:49.648Z,12.00
2019-04-27T09:13:19.451Z,12.27
2019-04-27T09:16:00.796Z,11.77
2019-04-27T09:18:29.297Z,11.63
2019-04-27T09:20:55.918Z,11.72
2019-04-27T09:23:24.059Z,11.66
2019-04-27T09:25:53.581Z,11.47
2019-04-27T09:28:22.026Z,11.69
2019-04-27T09:30:49.868Z,11.87
2019-04-27T09:33:16.990Z,11.77
2019-04-27T09:35:46.614Z,11.68
2019-04-27T09:38:14.126Z,11.88
2019-04-27T09:40:42.502Z,11.70
2019-04-27T09:43:11.059Z,11.75
2019-04-27T09:45:39.206Z,11.86
2019-04-27T09:48:07.041Z,11.70
2019-04-27T09:50:36.126Z,11.98
2019-04-27T09:53:02.541Z,11.77
2019-04-27T09:55:32.122Z,11.62
2019-04-27T09:58:00.686Z,11.92
2019-04-27T10:00:29.485Z,11.70
2019-04-27T10:02:56.964Z,12.07
2019-04-27T10:05:26.315Z,11.97
2019-04-27T10:07:52.793Z,12.37
2019-04-27T10:10:20.782Z,12.07
2019-04-27T10:12:49.120Z,12.47
2019-04-27T10:15:17.150Z,12.38
2019-04-27T10:17:45.564Z,11.84
2019-04-27T10:20:16.804Z,11.94
2019-04-27T10:22:46.607Z,12.07
2019-04-27T10:25:25.099Z,11.71
2019-04-27T10:27:59.921Z,11.64
2019-04-27T10:30:33.401Z,10.42
2019-04-27T10:33:07.901Z,9.89
2019-04-27T10:35:36.911Z,9.97
2019-04-27T10:38:04.899Z,10.19
2019-04-27T10:40:34.287Z,10.02
2019-04-27T10:43:03.746Z,9.84
2019-04-27T10:45:33.604Z,9.99
2019-04-27T10:48:02.462Z,10.10
2019-04-27T10:50:33.319Z,10.03
2019-04-27T10:53:02.915Z,9.89
2019-04-27T10:55:36.180Z,9.47
2019-04-27T10:58:04.682Z,10.02
2019-04-27T11:00:37.064Z,9.96
2019-04-27T11:03:06.612Z,10.06
2019-04-27T11:05:37.229Z,9.71
2019-04-27T11:08:06.508Z,9.56
2019-04-27T11:10:32.622Z,9.89
2019-04-27T11:13:00.217Z,10.23
2019-04-27T11:15:30.189Z,10.12
2019-04-27T11:17:58.002Z,10.00
2019-04-27T11:20:29.915Z,10.28
2019-04-27T11:23:07.072Z,10.47
2019-04-27T11:25:29.800Z,10.40
2019-04-27T11:28:02.590Z,10.00
2019-04-27T11:30:34.227Z,10.27
2019-04-27T11:33:03.498Z,10.40
2019-04-27T11:35:41.790Z,10.35
2019-04-27T11:38:14.521Z,10.83
2019-04-27T11:40:42.267Z,10.97
2019-04-27T11:45:48.002Z,10.78
2019-04-27T11:48:18.419Z,10.51
2019-04-27T11:50:48.567Z,10.22
2019-04-27T11:53:22.614Z,10.26
2019-04-27T11:55:47.941Z,10.33
2019-04-27T11:58:17.919Z,10.07
2019-04-27T12:00:48.541Z,10.05
2019-04-27T12:03:18.923Z,9.80
2019-04-27T12:05:48.411Z,10.00
2019-04-27T12:08:21.807Z,9.89
2019-04-27T12:10:51.605Z,9.48
2019-04-27T12:13:20.115Z,9.36
2019-04-27T12:15:51.310Z,9.43
2019-04-27T12:18:19.353Z,9.27
2019-04-27T12:20:50.652Z,9.67
2019-04-27T12:23:19.311Z,9.86
2019-04-27T12:25:47.145Z,9.80
2019-04-27T12:28:22.533Z,9.84
2019-04-27T12:30:56.461Z,9.77
2019-04-27T12:33:32.717Z,9.60
2019-04-27T12:36:07.505Z,10.05
2019-04-27T12:38:36.695Z,10.09
2019-04-27T12:41:06.634Z,10.19
2019-04-27T12:43:33.150Z,10.36
2019-04-27T12:46:00.783Z,10.03
2019-04-27T12:48:28.701Z,10.05
2019-04-27T12:50:56.503Z,10.37
2019-04-27T12:53:49.873Z,10.45
2019-04-27T12:56:08.805Z,10.38
2019-04-27T12:58:39.276Z,10.33
2019-04-27T13:03:33.829Z,10.67
2019-04-27T13:06:01.907Z,10.47
2019-04-27T13:08:29.367Z,10.88
2019-04-27T13:10:57.375Z,10.78
2019-04-27T13:13:26.542Z,10.85
2019-04-27T13:15:52.203Z,10.97
2019-04-27T13:18:20.237Z,10.81
2019-04-27T13:20:49.793Z,11.16
2019-04-27T13:23:17.301Z,10.80
2019-04-27T13:25:47.682Z,10.99
2019-04-27T13:28:15.214Z,10.67
2019-04-27T13:30:43.257Z,11.12
2019-04-27T13:33:11.004Z,10.86
2019-04-27T13:35:38.711Z,10.71
2019-04-27T13:38:06.184Z,10.86
2019-04-27T13:40:36.747Z,11.25
2019-04-27T13:43:09.764Z,11.59
2019-04-27T13:45:53.021Z,11.03
2019-04-27T13:48:36.495Z,11.67
2019-04-27T13:51:06.633Z,11.56
2019-04-27T13:53:32.992Z,11.64
2019-04-27T13:56:00.694Z,11.54
2019-04-27T13:58:28.189Z,11.49
2019-04-27T14:00:55.689Z,12.12
2019-04-27T14:03:25.105Z,12.31
2019-04-27T14:05:52.493Z,12.32
2019-04-27T14:08:19.997Z,12.48
2019-04-27T14:10:47.644Z,12.30
2019-04-27T14:13:17.514Z,12.40
2019-04-27T14:15:42.548Z,12.34
2019-04-27T14:18:10.080Z,12.35
2019-04-27T14:20:38.936Z,12.19
2019-04-27T14:23:11.423Z,12.54
2019-04-27T14:25:39.160Z,12.84
2019-04-27T14:28:08.419Z,12.83
2019-04-27T14:30:34.084Z,12.55
2019-04-27T14:33:01.556Z,12.24
2019-04-27T14:35:29.028Z,12.57
2019-04-27T14:37:58.141Z,12.24
2019-04-27T14:40:24.057Z,12.02
2019-04-27T14:42:53.672Z,12.35
2019-04-27T14:45:19.135Z,11.80
2019-04-27T14:47:48.133Z,11.59
2019-04-27T14:50:14.083Z,11.41
2019-04-27T14:52:41.584Z,11.07
2019-04-27T14:55:08.991Z,11.12
2019-04-27T14:57:36.478Z,11.11
2019-04-27T15:00:03.943Z,11.32
2019-04-27T15:02:31.383Z,11.00
2019-04-27T15:04:58.818Z,11.20
2019-04-27T15:07:26.252Z,11.53
2019-04-27T15:09:57.321Z,11.66
2019-04-27T15:12:24.527Z,11.93
2019-04-27T15:14:49.402Z,12.16
2019-04-27T15:17:17.544Z,12.14
2019-04-27T15:19:52.656Z,12.66
2019-04-27T15:22:19.613Z,12.83
2019-04-27T15:24:48.976Z,13.22
2019-04-27T15:27:11.458Z,13.07
2019-04-27T15:29:38.931Z,13.04
2019-04-27T15:32:12.324Z,13.33
2019-04-27T15:34:44.123Z,13.18
2019-04-27T15:37:18.250Z,12.87
2019-04-27T15:39:50.380Z,13.04
2019-04-27T15:42:19.049Z,12.62
2019-04-27T15:44:47.664Z,12.62
2019-04-27T15:47:13.753Z,11.79
2019-04-27T15:49:49.816Z,10.79
2019-04-27T15:52:09.149Z,10.48
2019-04-27T15:54:37.860Z,9.96
2019-04-27T15:57:05.672Z,11.04
2019-04-27T15:59:37.726Z,10.80
2019-04-27T16:02:00.091Z,11.24
2019-04-27T16:04:27.807Z,10.80
2019-04-27T16:06:55.273Z,11.30
2019-04-27T16:09:25.575Z,11.51
2019-04-27T16:11:57.949Z,11.13
2019-04-27T16:14:18.889Z,11.50
2019-04-27T16:16:45.407Z,11.18
2019-04-27T16:19:12.879Z,10.89
2019-04-27T16:21:46.989Z,10.93
2019-04-27T16:24:12.569Z,11.10
2019-04-27T16:26:38.616Z,11.38
2019-04-27T16:29:04.212Z,11.53
2019-04-27T16:31:33.171Z,11.43
2019-04-27T16:34:02.730Z,11.81
2019-04-27T16:36:28.722Z,11.98
2019-04-27T16:38:59.115Z,12.11
2019-04-27T16:41:28.120Z,11.85
2019-04-27T16:43:54.162Z,12.17
2019-04-27T16:46:21.666Z,12.34
2019-04-27T16:48:51.425Z,12.40
2019-04-27T16:51:19.151Z,12.28
2019-04-27T16:53:46.815Z,12.47
2019-04-27T16:56:16.421Z,12.41
2019-04-27T16:58:42.257Z,12.61
2019-04-27T17:01:10.682Z,12.62
2019-04-27T17:03:38.927Z,12.27
2019-04-27T17:06:07.920Z,12.24
2019-04-27T17:08:32.782Z,11.95
2019-04-27T17:11:08.347Z,11.53
2019-04-27T17:13:38.951Z,12.12
2019-04-27T17:16:08.697Z,12.32
2019-04-27T17:18:52.910Z,12.30
2019-04-27T17:21:23.035Z,12.48
2019-04-27T17:23:48.102Z,12.56
2019-04-27T17:26:21.123Z,12.64
2019-04-27T17:28:50.597Z,12.73
2019-04-27T17:31:19.669Z,12.85
2019-04-27T17:33:48.419Z,12.73
2019-04-27T17:36:15.922Z,12.55
2019-04-27T17:38:42.649Z,11.76
2019-04-27T17:41:11.183Z,11.93
2019-04-27T17:43:37.428Z,11.27
2019-04-27T17:46:02.530Z,11.33
2019-04-27T17:48:29.966Z,10.88
2019-04-27T17:51:02.643Z,10.84
2019-04-27T17:53:25.153Z,10.98
2019-04-27T17:55:54.952Z,11.10
2019-04-27T17:58:21.065Z,10.99
2019-04-27T18:00:47.407Z,10.89
2019-04-27T18:03:17.554Z,10.92
2019-04-27T18:05:43.806Z,10.75
2019-04-27T18:08:13.602Z,10.88
2019-04-27T18:10:37.333Z,11.15
2019-04-27T18:13:04.810Z,11.08
2019-04-27T18:15:32.289Z,10.90
2019-04-27T18:18:09.679Z,10.88
2019-04-27T18:20:37.914Z,9.71
2019-04-27T18:23:15.162Z,9.78
2019-04-27T18:25:40.361Z,9.67
2019-04-27T18:28:15.110Z,9.68
2019-04-27T18:30:42.087Z,9.72
2019-04-27T18:33:07.963Z,9.93
2019-04-27T18:35:36.610Z,9.79
2019-04-27T18:38:04.088Z,9.48
2019-04-27T18:40:33.255Z,9.29
2019-04-27T18:43:02.008Z,9.10
2019-04-27T18:45:28.335Z,8.91
2019-04-27T18:47:56.012Z,9.78
2019-04-27T18:50:28.156Z,10.15
2019-04-27T18:52:53.953Z,10.17
2019-04-27T18:55:21.972Z,10.47
2019-04-27T18:57:50.959Z,10.66
2019-04-27T19:00:17.757Z,10.43
2019-04-27T19:02:45.199Z,10.48
2019-04-27T19:05:12.803Z,9.81
2019-04-27T19:07:40.299Z,10.01
2019-04-27T19:10:08.969Z,10.11
2019-04-27T19:12:35.392Z,10.37
2019-04-27T19:15:03.154Z,10.01
2019-04-27T19:17:30.663Z,9.98
2019-04-27T19:19:58.180Z,10.10
2019-04-27T19:22:27.944Z,10.10
2019-04-27T19:24:54.247Z,9.94
2019-04-27T19:27:22.450Z,9.86
2019-04-27T19:29:49.896Z,9.72
2019-04-27T19:32:17.957Z,9.85
2019-04-27T19:34:45.205Z,9.83
2019-04-27T19:37:13.469Z,9.93
2019-04-27T19:39:40.942Z,9.38
2019-04-27T19:42:08.397Z,9.26
2019-04-27T19:44:35.865Z,9.34
2019-04-27T19:47:05.685Z,9.47
2019-04-27T19:49:31.730Z,9.41
2019-04-27T19:51:58.814Z,9.27
2019-04-27T19:54:25.861Z,9.65
2019-04-27T19:56:53.368Z,9.38
2019-04-27T19:59:21.346Z,9.25
2019-04-27T20:01:48.846Z,9.40
2019-04-27T20:04:31.365Z,9.13
2019-04-27T20:06:59.853Z,9.19
2019-04-27T20:09:34.532Z,9.16
2019-04-27T20:12:05.079Z,9.47
2019-04-27T20:14:30.907Z,9.78
2019-04-27T20:16:58.269Z,10.10
2019-04-27T20:19:25.815Z,10.29
2019-04-27T20:21:53.318Z,10.29
2019-04-27T20:24:22.735Z,10.13
2019-04-27T20:26:48.336Z,10.04
2019-04-27T20:29:15.781Z,9.95
2019-04-27T20:31:43.226Z,10.19
2019-04-27T20:34:10.678Z,10.23
2019-04-27T20:36:38.802Z,10.08
2019-04-27T20:39:06.298Z,9.91
2019-04-27T20:41:33.927Z,10.26
2019-04-27T20:44:02.345Z,9.87
2019-04-27T20:46:28.983Z,9.88
2019-04-27T20:48:57.376Z,9.72
2019-04-27T20:51:31.049Z,9.60
2019-04-27T20:53:58.492Z,9.70
2019-04-27T20:56:25.976Z,9.80
2019-04-27T20:58:53.451Z,10.08
2019-04-27T21:01:20.976Z,9.88
2019-04-27T21:03:48.548Z,9.62
2019-04-27T21:06:16.041Z,9.79
2019-04-27T21:08:43.553Z,9.53
2019-04-27T21:11:11.827Z,9.78
2019-04-27T21:13:38.646Z,9.78
2019-04-27T21:16:06.125Z,9.29
2019-04-27T21:18:33.590Z,9.60
2019-04-27T21:21:01.381Z,9.37
2019-04-27T21:23:31.175Z,9.77
2019-04-27T21:25:57.094Z,9.50
2019-04-27T21:28:24.607Z,9.55
2019-04-27T21:30:52.102Z,9.41
2019-04-27T21:33:21.411Z,9.40
2019-04-27T21:35:48.284Z,9.19
2019-04-27T21:38:15.872Z,9.29
2019-04-27T21:40:43.407Z,9.55
2019-04-27T21:43:11.303Z,9.24
2019-04-27T21:45:38.520Z,9.25
2019-04-27T21:48:06.053Z,9.64
2019-04-27T21:50:33.490Z,9.65
2019-04-27T21:53:02.490Z,9.52
2019-04-27T21:55:30.923Z,9.85
2019-04-27T21:57:57.941Z,9.51
2019-04-27T22:00:43.160Z,9.93
2019-04-27T22:03:11.400Z,10.09
2019-04-27T22:05:38.355Z,10.20
2019-04-27T22:08:05.927Z,10.19
2019-04-27T22:10:33.802Z,10.34
2019-04-27T22:13:01.967Z,10.13
2019-04-27T22:15:29.261Z,10.26
2019-04-27T22:17:56.768Z,10.15
2019-04-27T22:20:24.323Z,10.19
2019-04-27T22:22:51.848Z,10.06
2019-04-27T22:25:19.337Z,9.90
2019-04-27T22:27:46.760Z,10.33
2019-04-27T22:30:14.293Z,10.37
2019-04-27T22:32:41.897Z,9.89
2019-04-27T22:35:09.407Z,10.23
2019-04-27T22:37:36.936Z,10.10
2019-04-27T22:40:21.471Z,9.86
2019-04-27T22:43:03.878Z,9.77
2019-04-27T22:45:31.366Z,10.13
2019-04-27T22:47:58.856Z,10.06
2019-04-27T22:50:26.375Z,9.73
2019-04-27T22:52:53.841Z,9.50
2019-04-27T22:55:22.017Z,10.09
2019-04-27T22:57:48.834Z,10.08
2019-04-27T23:00:31.293Z,10.01
2019-04-27T23:03:00.561Z,10.02
2019-04-27T23:05:26.298Z,9.83
2019-04-27T23:07:53.779Z,10.19
2019-04-27T23:10:22.313Z,10.30
2019-04-27T23:12:50.953Z,10.24
2019-04-27T23:15:17.464Z,10.36
2019-04-27T23:17:45.805Z,10.34
2019-04-27T23:20:13.198Z,10.46
2019-04-27T23:22:40.681Z,10.39
2019-04-27T23:25:08.183Z,10.25
2019-04-27T23:27:35.644Z,10.33
2019-04-27T23:30:03.062Z,10.43
2019-04-27T23:32:31.674Z,10.62
2019-04-27T23:34:58.605Z,10.49
2019-04-27T23:37:26.145Z,10.46
2019-04-27T23:39:53.635Z,9.84
2019-04-27T23:42:21.721Z,10.31
2019-04-27T23:44:48.592Z,10.16
2019-04-27T23:47:16.066Z,9.93
2019-04-27T23:49:43.635Z,10.23
2019-04-27T23:52:13.438Z,10.15
2019-04-27T23:54:42.767Z,9.60
2019-04-27T23:57:08.418Z,10.04
2019-04-27T23:59:35.952Z,10.14
